createdAt,value
2023-03-06T00:00:16.313Z,118
2023-03-06T00:01:29.073Z,111
2023-03-06T00:02:37.842Z,108
2023-03-06T00:03:45.078Z,110
2023-03-06T00:04:52.095Z,107
2023-03-06T00:06:01.669Z,107
2023-03-06T00:07:11.303Z,110
2023-03-06T00:08:18.201Z,106
2023-03-06T00:09:26.262Z,109
2023-03-06T00:10:37.735Z,112
2023-03-06T00:11:48.214Z,112
2023-03-06T00:12:55.367Z,112
2023-03-06T00:14:08.207Z,113
2023-03-06T00:15:18.395Z,111
2023-03-06T00:16:29.179Z,116
2023-03-06T00:17:41.649Z,113
2023-03-06T00:18:48.708Z,117
2023-03-06T00:19:56.516Z,115
2023-03-06T00:21:07.057Z,116
2023-03-06T00:22:14.675Z,114
2023-03-06T00:23:23.164Z,121
2023-03-06T00:24:30.143Z,115
2023-03-06T00:25:37.097Z,115
2023-03-06T00:26:49.103Z,121
2023-03-06T00:27:56.688Z,117
2023-03-06T00:29:03.658Z,115
2023-03-06T00:30:15.409Z,117
2023-03-06T00:31:22.863Z,117
2023-03-06T00:32:29.908Z,110
2023-03-06T00:33:36.834Z,109
2023-03-06T00:34:43.858Z,110
2023-03-06T00:35:54.823Z,116
2023-03-06T00:37:01.840Z,116
2023-03-06T00:38:09.575Z,111
2023-03-06T00:39:16.608Z,109
2023-03-06T00:40:23.616Z,109
2023-03-06T00:41:30.561Z,112
2023-03-06T00:42:37.820Z,116
2023-03-06T00:43:45.596Z,116
2023-03-06T00:44:54.391Z,117
2023-03-06T00:46:01.426Z,111
2023-03-06T00:47:08.760Z,114
2023-03-06T00:48:17.236Z,115
2023-03-06T00:49:24.160Z,109
2023-03-06T00:50:36.445Z,104
2023-03-06T00:51:46.934Z,111
2023-03-06T00:52:57.249Z,111
2023-03-06T00:54:04.332Z,108
2023-03-06T00:55:14.622Z,109
2023-03-06T00:56:21.683Z,110
2023-03-06T00:57:34.411Z,115
2023-03-06T00:58:41.255Z,108
2023-03-06T00:59:48.388Z,111
2023-03-06T01:00:56.319Z,119
2023-03-06T01:02:03.230Z,117
2023-03-06T01:03:11.060Z,118
2023-03-06T01:04:18.004Z,110
2023-03-06T01:05:26.535Z,117
2023-03-06T01:06:34.493Z,120
2023-03-06T01:07:42.311Z,122
2023-03-06T01:08:49.278Z,111
2023-03-06T01:09:57.160Z,109
2023-03-06T01:11:04.131Z,111
2023-03-06T01:12:15.396Z,101
2023-03-06T01:13:24.329Z,110
2023-03-06T01:14:31.323Z,103
2023-03-06T01:15:39.129Z,97
2023-03-06T01:16:47.080Z,99
2023-03-06T01:17:54.844Z,100
2023-03-06T01:19:01.768Z,99
2023-03-06T01:20:08.698Z,92
2023-03-06T01:21:18.506Z,87
2023-03-06T01:22:25.452Z,87
2023-03-06T01:23:33.972Z,89
2023-03-06T01:24:41.128Z,98
2023-03-06T01:25:49.082Z,92
2023-03-06T01:26:56.018Z,93
2023-03-06T01:28:05.913Z,99
2023-03-06T01:29:12.909Z,96
2023-03-06T01:30:20.212Z,86
2023-03-06T01:31:27.283Z,98
2023-03-06T01:32:34.302Z,97
2023-03-06T01:33:42.358Z,91
2023-03-06T01:34:52.024Z,90
2023-03-06T01:36:03.993Z,93
2023-03-06T01:37:11.295Z,93
2023-03-06T01:38:18.934Z,92
2023-03-06T01:39:25.886Z,86
2023-03-06T01:40:36.522Z,80
2023-03-06T01:41:47.245Z,84
2023-03-06T01:42:54.560Z,82
2023-03-06T01:44:02.608Z,77
2023-03-06T01:45:09.600Z,78
2023-03-06T01:46:16.682Z,89
2023-03-06T01:47:33.763Z,80
2023-03-06T01:48:40.758Z,77
2023-03-06T01:49:47.725Z,82
2023-03-06T01:50:55.754Z,77
2023-03-06T01:52:02.799Z,77
2023-03-06T01:53:09.772Z,69
2023-03-06T01:54:16.760Z,73
2023-03-06T01:55:29.050Z,66
2023-03-06T01:56:41.329Z,61
2023-03-06T01:57:49.065Z,58
2023-03-06T01:58:55.985Z,62
2023-03-06T02:00:06.489Z,70
2023-03-06T02:01:13.722Z,68
2023-03-06T02:02:20.745Z,61
2023-03-06T02:03:28.879Z,64
2023-03-06T02:04:37.228Z,50
2023-03-06T02:05:44.469Z,59
2023-03-06T02:06:52.042Z,53
2023-03-06T02:07:58.939Z,58
2023-03-06T02:09:07.732Z,57
2023-03-06T02:10:15.340Z,52
2023-03-06T02:11:22.356Z,49
2023-03-06T02:12:29.358Z,46
2023-03-06T02:13:40.468Z,47
2023-03-06T02:14:47.914Z,39
2023-03-06T02:15:54.865Z,46
2023-03-06T02:17:03.049Z,37
2023-03-06T02:18:09.994Z,46
2023-03-06T02:19:16.949Z,40
2023-03-06T02:20:36.253Z,44
2023-03-06T02:21:45.137Z,45
2023-03-06T02:22:53.403Z,39
2023-03-06T02:24:00.425Z,45
2023-03-06T02:25:15.651Z,50
2023-03-06T02:26:33.097Z,45
2023-03-06T02:27:43.075Z,46
2023-03-06T02:28:50.671Z,48
2023-03-06T02:29:57.674Z,54
2023-03-06T02:31:04.667Z,46
2023-03-06T02:32:14.370Z,57
2023-03-06T02:33:24.993Z,46
2023-03-06T02:34:35.136Z,52
2023-03-06T02:35:42.096Z,51
2023-03-06T02:36:54.055Z,60
2023-03-06T02:38:06.126Z,58
2023-03-06T02:39:14.407Z,57
2023-03-06T02:40:26.426Z,59
2023-03-06T02:41:35.313Z,56
2023-03-06T02:42:43.219Z,60
2023-03-06T02:43:53.253Z,61
2023-03-06T02:45:00.682Z,66
2023-03-06T02:46:10.782Z,64
2023-03-06T02:47:17.642Z,55
2023-03-06T02:48:24.592Z,57
2023-03-06T02:49:31.591Z,55
2023-03-06T02:50:44.704Z,58
2023-03-06T02:51:51.950Z,64
2023-03-06T02:53:00.138Z,52
2023-03-06T02:54:07.077Z,51
2023-03-06T02:55:14.065Z,51
2023-03-06T02:56:21.090Z,49
2023-03-06T02:57:28.948Z,52
2023-03-06T02:58:40.645Z,52
2023-03-06T02:59:47.964Z,46
2023-03-06T03:00:58.053Z,49
2023-03-06T03:02:05.023Z,45
2023-03-06T03:03:12.633Z,47
2023-03-06T03:04:20.074Z,44
2023-03-06T03:05:27.964Z,46
2023-03-06T03:06:39.059Z,48
2023-03-06T03:07:46.026Z,41
2023-03-06T03:08:53.087Z,46
2023-03-06T03:10:00.034Z,52
2023-03-06T03:11:07.779Z,47
2023-03-06T03:12:15.761Z,43
2023-03-06T03:13:22.678Z,42
2023-03-06T03:14:36.804Z,38
2023-03-06T03:15:43.882Z,41
2023-03-06T03:16:54.537Z,47
2023-03-06T03:18:02.473Z,48
2023-03-06T03:19:09.439Z,41
2023-03-06T03:20:18.252Z,41
2023-03-06T03:21:25.333Z,46
2023-03-06T03:22:32.333Z,42
2023-03-06T03:23:39.425Z,44
2023-03-06T03:24:52.004Z,47
2023-03-06T03:25:59.163Z,44
2023-03-06T03:27:09.116Z,56
2023-03-06T03:28:16.168Z,47
2023-03-06T03:29:23.130Z,52
2023-03-06T03:30:30.914Z,50
2023-03-06T03:31:37.936Z,47
2023-03-06T03:32:45.770Z,54
2023-03-06T03:33:55.808Z,61
2023-03-06T03:35:03.895Z,67
2023-03-06T03:36:11.651Z,68
2023-03-06T03:37:19.464Z,68
2023-03-06T03:38:27.648Z,70
2023-03-06T03:39:34.827Z,72
2023-03-06T03:40:46.783Z,77
2023-03-06T03:41:53.729Z,76
2023-03-06T03:43:00.792Z,73
2023-03-06T03:44:07.985Z,68
2023-03-06T03:45:15.092Z,69
2023-03-06T03:46:23.732Z,68
2023-03-06T03:47:30.901Z,66
2023-03-06T03:48:38.101Z,65
2023-03-06T03:49:48.045Z,63
2023-03-06T03:50:55.569Z,56
2023-03-06T03:52:11.322Z,54
2023-03-06T03:53:18.281Z,55
2023-03-06T03:54:25.188Z,60
2023-03-06T03:55:32.572Z,54
2023-03-06T03:56:39.471Z,51
2023-03-06T03:57:47.490Z,52
2023-03-06T03:58:54.562Z,53
2023-03-06T04:00:06.851Z,43
2023-03-06T04:01:15.534Z,47
2023-03-06T04:02:22.732Z,52
2023-03-06T04:03:31.619Z,47
2023-03-06T04:04:43.497Z,42
2023-03-06T04:05:50.429Z,46
2023-03-06T04:07:02.354Z,44
2023-03-06T04:08:09.353Z,35
2023-03-06T04:09:16.702Z,35
2023-03-06T04:10:23.618Z,35
2023-03-06T04:11:34.957Z,34
2023-03-06T04:12:45.353Z,27
2023-03-06T04:13:52.307Z,29
2023-03-06T04:15:00.215Z,38
2023-03-06T04:16:08.179Z,37
2023-03-06T04:17:19.984Z,33
2023-03-06T04:18:27.034Z,44
2023-03-06T04:19:35.216Z,43
2023-03-06T04:20:46.717Z,45
2023-03-06T04:21:54.022Z,53
2023-03-06T04:23:03.660Z,56
2023-03-06T04:24:10.708Z,58
2023-03-06T04:25:18.436Z,61
2023-03-06T04:26:25.464Z,66
2023-03-06T04:27:32.409Z,66
2023-03-06T04:28:43.588Z,73
2023-03-06T04:29:51.722Z,73
2023-03-06T04:30:58.765Z,78
2023-03-06T04:32:08.342Z,78
2023-03-06T04:33:15.278Z,76
2023-03-06T04:34:23.153Z,80
2023-03-06T04:35:31.231Z,87
2023-03-06T04:36:38.166Z,97
2023-03-06T04:37:45.175Z,91
2023-03-06T04:38:52.177Z,95
2023-03-06T04:39:59.113Z,96
2023-03-06T04:41:06.246Z,97
2023-03-06T04:42:14.036Z,99
2023-03-06T04:43:21.101Z,92
2023-03-06T04:44:30.288Z,92
2023-03-06T04:45:39.245Z,97
2023-03-06T04:46:46.168Z,91
2023-03-06T04:47:55.226Z,96
2023-03-06T04:49:02.779Z,92
2023-03-06T04:50:10.565Z,86
2023-03-06T04:51:18.608Z,84
2023-03-06T04:52:27.609Z,87
2023-03-06T04:53:34.544Z,90
2023-03-06T04:54:42.536Z,88
2023-03-06T04:55:49.685Z,88
2023-03-06T04:56:58.533Z,89
2023-03-06T04:58:06.264Z,84
2023-03-06T04:59:17.436Z,89
2023-03-06T05:00:24.353Z,87
2023-03-06T05:01:36.688Z,84
2023-03-06T05:02:46.072Z,82
2023-03-06T05:03:56.348Z,85
2023-03-06T05:05:04.273Z,79
2023-03-06T05:06:11.269Z,80
2023-03-06T05:07:18.214Z,84
2023-03-06T05:08:29.984Z,82
2023-03-06T05:09:39.597Z,76
2023-03-06T05:10:46.515Z,78
2023-03-06T05:11:58.552Z,76
2023-03-06T05:13:07.022Z,83
2023-03-06T05:14:14.112Z,80
2023-03-06T05:15:21.388Z,77
2023-03-06T05:16:28.363Z,71
2023-03-06T05:17:36.755Z,75
2023-03-06T05:18:43.731Z,71
2023-03-06T05:19:50.699Z,69
2023-03-06T05:20:57.735Z,73
2023-03-06T05:22:05.315Z,70
2023-03-06T05:23:12.353Z,72
2023-03-06T05:24:19.266Z,67
2023-03-06T05:25:26.327Z,68
2023-03-06T05:26:34.522Z,74
2023-03-06T05:27:45.364Z,69
2023-03-06T05:28:52.355Z,67
2023-03-06T05:29:59.516Z,67
2023-03-06T05:31:06.644Z,66
2023-03-06T05:32:13.805Z,66
2023-03-06T05:33:20.611Z,63
2023-03-06T05:34:27.786Z,67
2023-03-06T05:35:34.831Z,68
2023-03-06T05:36:41.891Z,67
2023-03-06T05:37:50.451Z,68
2023-03-06T05:38:59.064Z,59
2023-03-06T05:40:05.969Z,65
2023-03-06T05:41:13.276Z,64
2023-03-06T05:42:22.260Z,63
2023-03-06T05:43:29.424Z,63
2023-03-06T05:44:39.860Z,58
2023-03-06T05:45:46.846Z,62
2023-03-06T05:46:58.731Z,62
2023-03-06T05:48:06.190Z,60
2023-03-06T05:49:15.867Z,60
2023-03-06T05:50:25.946Z,60
2023-03-06T05:51:33.076Z,53
2023-03-06T05:52:41.766Z,54
2023-03-06T05:53:51.700Z,52
2023-03-06T05:54:58.740Z,57
2023-03-06T05:56:05.666Z,54
2023-03-06T05:57:16.289Z,52
2023-03-06T05:58:23.192Z,46
2023-03-06T05:59:30.939Z,49
2023-03-06T06:00:38.689Z,47
2023-03-06T06:01:45.575Z,49
2023-03-06T06:02:53.279Z,46
2023-03-06T06:04:00.200Z,48
2023-03-06T06:05:08.060Z,44
2023-03-06T06:06:15.067Z,39
2023-03-06T06:07:22.113Z,42
2023-03-06T06:08:31.765Z,40
2023-03-06T06:09:38.586Z,45
2023-03-06T06:10:45.440Z,40
2023-03-06T06:11:52.265Z,41
2023-03-06T06:13:02.623Z,33
2023-03-06T06:14:09.520Z,34
2023-03-06T06:15:16.339Z,36
2023-03-06T06:16:23.332Z,38
2023-03-06T06:17:30.232Z,32
2023-03-06T06:18:39.271Z,37
2023-03-06T06:19:44.667Z,35
2023-03-06T06:20:51.459Z,31
2023-03-06T06:21:58.299Z,29
2023-03-06T06:23:07.033Z,28
2023-03-06T06:24:15.271Z,29
2023-03-06T06:25:22.234Z,28
2023-03-06T06:26:30.107Z,29
2023-03-06T06:27:36.865Z,25
2023-03-06T06:28:44.361Z,25
2023-03-06T06:29:51.211Z,29
2023-03-06T06:30:58.098Z,34
2023-03-06T06:32:04.956Z,25
2023-03-06T06:33:12.690Z,27
2023-03-06T06:34:19.482Z,28
2023-03-06T06:35:26.369Z,25
2023-03-06T06:36:33.162Z,26
2023-03-06T06:37:40.052Z,25
2023-03-06T06:38:47.057Z,30
2023-03-06T06:39:53.795Z,32
2023-03-06T06:41:30.946Z,29
2023-03-06T06:42:28.486Z,30
2023-03-06T06:43:14.377Z,30
2023-03-06T06:44:21.260Z,25
2023-03-06T06:45:26.312Z,25
2023-03-06T06:47:18.091Z,25
2023-03-06T06:47:40.907Z,25
2023-03-06T06:48:47.781Z,26
2023-03-06T06:49:54.712Z,29
2023-03-06T06:51:01.464Z,25
2023-03-06T06:52:08.496Z,29
2023-03-06T06:53:15.309Z,27
2023-03-06T06:54:22.237Z,27
2023-03-06T06:55:29.134Z,26
2023-03-06T06:56:35.955Z,31
2023-03-06T06:57:42.826Z,32
2023-03-06T06:58:50.375Z,30
2023-03-06T06:59:59.945Z,32
2023-03-06T07:01:06.884Z,33
2023-03-06T07:02:13.732Z,28
2023-03-06T07:03:21.604Z,35
2023-03-06T07:04:28.441Z,39
2023-03-06T07:05:35.214Z,33
2023-03-06T07:06:42.023Z,27
2023-03-06T07:07:48.909Z,34
2023-03-06T07:08:56.653Z,27
2023-03-06T07:10:02.607Z,28
2023-03-06T07:11:09.564Z,29
2023-03-06T07:12:16.372Z,25
2023-03-06T07:13:23.280Z,29
2023-03-06T07:14:30.240Z,30
2023-03-06T07:15:37.259Z,27
2023-03-06T07:16:44.831Z,30
2023-03-06T07:17:51.811Z,25
2023-03-06T07:18:58.632Z,27
2023-03-06T07:20:05.472Z,26
2023-03-06T07:21:12.779Z,29
2023-03-06T07:22:19.600Z,29
2023-03-06T07:23:26.371Z,36
2023-03-06T07:24:33.216Z,27
2023-03-06T07:25:40.136Z,30
2023-03-06T07:26:47.013Z,26
2023-03-06T07:27:54.475Z,25
2023-03-06T07:29:00.713Z,31
2023-03-06T07:30:07.524Z,28
2023-03-06T07:31:14.805Z,27
2023-03-06T07:32:21.878Z,26
2023-03-06T07:33:28.651Z,30
2023-03-06T07:34:35.539Z,33
2023-03-06T07:35:43.630Z,36
2023-03-06T07:36:50.492Z,30
2023-03-06T07:37:57.381Z,25
2023-03-06T07:39:04.294Z,28
2023-03-06T07:40:11.150Z,33
2023-03-06T07:41:18.986Z,30
2023-03-06T07:42:24.863Z,25
2023-03-06T07:43:31.771Z,32
2023-03-06T07:44:38.679Z,30
2023-03-06T07:45:45.463Z,29
2023-03-06T07:46:52.389Z,32
2023-03-06T07:47:59.160Z,25
2023-03-06T07:49:06.007Z,25
2023-03-06T07:50:12.839Z,28
2023-03-06T07:51:19.927Z,35
2023-03-06T07:52:26.768Z,30
2023-03-06T07:53:33.693Z,30
2023-03-06T07:54:41.411Z,29
2023-03-06T07:55:48.232Z,32
2023-03-06T07:56:55.185Z,32
2023-03-06T07:58:01.940Z,32
2023-03-06T07:59:08.811Z,34
2023-03-06T08:00:20.378Z,31
2023-03-06T08:01:27.518Z,26
2023-03-06T08:02:34.515Z,25
2023-03-06T08:03:41.284Z,28
2023-03-06T08:04:48.060Z,26
2023-03-06T08:05:54.920Z,36
2023-03-06T08:07:09.476Z,25
2023-03-06T08:08:16.349Z,39
2023-03-06T08:09:23.223Z,35
2023-03-06T08:10:30.860Z,39
2023-03-06T08:11:37.783Z,37
2023-03-06T08:12:45.383Z,34
2023-03-06T08:13:52.267Z,25
2023-03-06T08:14:59.095Z,29
2023-03-06T08:16:05.988Z,32
2023-03-06T08:17:12.957Z,29
2023-03-06T08:18:19.791Z,25
2023-03-06T08:19:26.601Z,42
2023-03-06T08:20:34.380Z,32
2023-03-06T08:21:41.193Z,29
2023-03-06T08:22:48.138Z,36
2023-03-06T08:23:55.020Z,35
2023-03-06T08:25:01.798Z,25
2023-03-06T08:26:08.867Z,28
2023-03-06T08:27:15.679Z,30
2023-03-06T08:28:22.526Z,31
2023-03-06T08:29:32.073Z,30
2023-03-06T08:30:37.060Z,32
2023-03-06T08:31:44.015Z,25
2023-03-06T08:32:50.711Z,34
2023-03-06T08:33:57.780Z,40
2023-03-06T08:35:04.728Z,28
2023-03-06T08:36:11.627Z,29
2023-03-06T08:37:18.470Z,30
2023-03-06T08:38:25.172Z,27
2023-03-06T08:39:32.182Z,33
2023-03-06T08:40:39.910Z,30
2023-03-06T08:41:46.786Z,28
2023-03-06T08:42:53.604Z,25
2023-03-06T08:44:01.224Z,35
2023-03-06T08:45:08.178Z,28
2023-03-06T08:46:15.098Z,28
2023-03-06T08:47:22.841Z,33
2023-03-06T08:48:30.484Z,29
2023-03-06T08:49:37.295Z,25
2023-03-06T08:50:45.167Z,33
2023-03-06T08:51:52.032Z,32
2023-03-06T08:52:58.956Z,25
2023-03-06T08:54:05.783Z,25
2023-03-06T08:55:15.057Z,29
2023-03-06T08:56:20.192Z,43
2023-03-06T08:57:29.643Z,33
2023-03-06T08:58:36.652Z,31
2023-03-06T08:59:43.526Z,28
2023-03-06T09:00:50.460Z,32
2023-03-06T09:01:58.187Z,28
2023-03-06T09:03:04.869Z,34
2023-03-06T09:04:11.662Z,38
2023-03-06T09:05:18.529Z,30
2023-03-06T09:06:26.253Z,27
2023-03-06T09:07:33.262Z,25
2023-03-06T09:08:40.026Z,35
2023-03-06T09:09:46.865Z,30
2023-03-06T09:10:53.712Z,30
2023-03-06T09:12:01.475Z,25
2023-03-06T09:13:08.278Z,30
2023-03-06T09:14:15.070Z,41
2023-03-06T09:15:21.950Z,37
2023-03-06T09:16:28.897Z,39
2023-03-06T09:17:35.790Z,37
2023-03-06T09:18:42.595Z,40
2023-03-06T09:19:55.826Z,28
2023-03-06T09:21:02.685Z,32
2023-03-06T09:22:09.589Z,27
2023-03-06T09:23:16.421Z,32
2023-03-06T09:24:23.193Z,25
2023-03-06T09:25:30.172Z,37
2023-03-06T09:26:45.354Z,32
2023-03-06T09:27:43.939Z,25
2023-03-06T09:28:50.714Z,25
2023-03-06T09:29:57.558Z,35
2023-03-06T09:31:04.558Z,44
2023-03-06T09:32:14.360Z,44
2023-03-06T09:33:21.241Z,36
2023-03-06T09:34:29.017Z,32
2023-03-06T09:35:35.889Z,35
2023-03-06T09:36:56.265Z,31
2023-03-06T09:37:54.744Z,29
2023-03-06T09:39:01.537Z,33
2023-03-06T09:40:08.304Z,28
2023-03-06T09:41:21.132Z,41
2023-03-06T09:42:38.075Z,41
2023-03-06T09:43:44.982Z,46
2023-03-06T09:44:51.848Z,40
2023-03-06T09:45:58.729Z,26
2023-03-06T09:47:11.469Z,25
2023-03-06T09:48:26.276Z,25
2023-03-06T09:49:38.384Z,29
2023-03-06T09:50:52.928Z,33
2023-03-06T09:51:59.784Z,29
2023-03-06T09:53:10.770Z,25
2023-03-06T09:54:25.776Z,26
2023-03-06T09:55:33.532Z,31
2023-03-06T09:56:40.350Z,31
2023-03-06T09:57:47.362Z,41
2023-03-06T09:58:59.242Z,25
2023-03-06T10:00:08.641Z,30
2023-03-06T10:01:21.356Z,30
2023-03-06T10:02:28.331Z,29
2023-03-06T10:03:40.016Z,46
2023-03-06T10:04:52.070Z,33
2023-03-06T10:06:02.759Z,30
2023-03-06T10:07:08.574Z,29
2023-03-06T10:08:23.149Z,36
2023-03-06T10:09:35.042Z,37
2023-03-06T10:10:47.677Z,25
2023-03-06T10:11:54.536Z,42
2023-03-06T10:13:04.246Z,28
2023-03-06T10:14:16.097Z,36
2023-03-06T10:15:33.121Z,41
2023-03-06T10:16:39.906Z,33
2023-03-06T10:17:46.768Z,25
2023-03-06T10:18:53.583Z,26
2023-03-06T10:20:00.405Z,25
2023-03-06T10:21:18.960Z,25
2023-03-06T10:22:27.356Z,36
2023-03-06T10:23:34.159Z,40
2023-03-06T10:24:46.060Z,29
2023-03-06T10:25:58.136Z,34
2023-03-06T10:27:04.976Z,36
2023-03-06T10:28:19.561Z,25
2023-03-06T10:29:26.429Z,25
2023-03-06T10:30:40.906Z,25
2023-03-06T10:31:55.805Z,25
2023-03-06T10:33:07.710Z,27
2023-03-06T10:34:24.542Z,25
2023-03-06T10:35:34.195Z,34
2023-03-06T10:36:51.011Z,36
2023-03-06T10:37:57.778Z,25
2023-03-06T10:39:12.687Z,60
2023-03-06T10:40:19.455Z,48
2023-03-06T10:41:26.255Z,61
2023-03-06T10:42:33.004Z,55
2023-03-06T10:43:39.835Z,44
2023-03-06T10:44:46.811Z,37
2023-03-06T10:45:54.810Z,58
2023-03-06T10:47:01.603Z,61
2023-03-06T10:48:18.563Z,60
2023-03-06T10:49:25.570Z,47
2023-03-06T10:50:35.349Z,44
2023-03-06T10:51:42.320Z,47
2023-03-06T10:52:54.160Z,44
2023-03-06T10:54:06.491Z,49
2023-03-06T10:55:16.163Z,32
2023-03-06T10:56:29.301Z,25
2023-03-06T10:57:38.831Z,25
2023-03-06T10:58:45.602Z,29
2023-03-06T10:59:52.437Z,25
2023-03-06T11:01:04.346Z,25
2023-03-06T11:02:16.280Z,45
2023-03-06T11:03:28.910Z,44
2023-03-06T11:04:35.784Z,25
2023-03-06T11:05:42.490Z,25
2023-03-06T11:06:57.168Z,28
2023-03-06T11:08:09.188Z,59
2023-03-06T11:09:15.979Z,69
2023-03-06T11:10:25.665Z,57
2023-03-06T11:11:37.644Z,29
2023-03-06T11:12:39.352Z,37
2023-03-06T11:13:46.122Z,42
2023-03-06T11:14:52.959Z,44
2023-03-06T11:16:10.015Z,57
2023-03-06T11:17:26.946Z,37
2023-03-06T11:18:33.797Z,37
2023-03-06T11:19:40.598Z,31
2023-03-06T11:20:52.681Z,34
2023-03-06T11:21:54.250Z,39
2023-03-06T11:23:06.159Z,39
2023-03-06T11:24:23.165Z,40
2023-03-06T11:25:29.978Z,52
2023-03-06T11:26:36.880Z,54
2023-03-06T11:27:51.916Z,25
2023-03-06T11:29:06.691Z,35
2023-03-06T11:30:19.263Z,40
2023-03-06T11:31:26.109Z,58
2023-03-06T11:32:32.983Z,52
2023-03-06T11:33:39.880Z,30
2023-03-06T11:34:51.777Z,34
2023-03-06T11:36:01.199Z,53
2023-03-06T11:37:08.032Z,30
2023-03-06T11:38:14.875Z,27
2023-03-06T11:39:24.498Z,31
2023-03-06T11:40:36.349Z,53
2023-03-06T11:41:53.224Z,45
2023-03-06T11:43:02.845Z,44
2023-03-06T11:44:09.776Z,57
2023-03-06T11:45:22.528Z,25
2023-03-06T11:46:33.318Z,43
2023-03-06T11:47:43.015Z,31
2023-03-06T11:48:49.965Z,26
2023-03-06T11:50:01.821Z,40
2023-03-06T11:51:11.626Z,25
2023-03-06T11:52:18.596Z,43
2023-03-06T11:53:25.434Z,42
2023-03-06T11:54:37.360Z,65
2023-03-06T11:55:44.212Z,33
2023-03-06T11:56:56.187Z,52
2023-03-06T11:58:05.854Z,62
2023-03-06T11:59:17.751Z,61
2023-03-06T12:00:34.688Z,55
2023-03-06T12:01:49.488Z,55
2023-03-06T12:03:06.475Z,50
2023-03-06T12:04:23.441Z,54
2023-03-06T12:05:35.313Z,49
2023-03-06T12:06:44.914Z,53
2023-03-06T12:07:54.860Z,41
2023-03-06T12:09:09.534Z,50
2023-03-06T12:10:17.297Z,37
2023-03-06T12:11:24.004Z,45
2023-03-06T12:12:30.908Z,48
2023-03-06T12:13:42.862Z,50
2023-03-06T12:15:00.969Z,38
2023-03-06T12:16:12.738Z,60
2023-03-06T12:17:27.616Z,46
2023-03-06T12:18:44.765Z,42
2023-03-06T12:19:55.329Z,37
2023-03-06T12:21:12.239Z,53
2023-03-06T12:22:19.075Z,44
2023-03-06T12:23:37.892Z,25
2023-03-06T12:24:53.758Z,35
2023-03-06T12:26:10.543Z,50
2023-03-06T12:27:22.381Z,30
2023-03-06T12:28:34.308Z,25
2023-03-06T12:29:51.267Z,43
2023-03-06T12:31:08.220Z,48
2023-03-06T12:32:15.206Z,38
2023-03-06T12:33:27.682Z,40
2023-03-06T12:34:40.371Z,50
2023-03-06T12:35:55.113Z,57
2023-03-06T12:37:06.923Z,45
2023-03-06T12:38:21.911Z,45
2023-03-06T12:39:38.972Z,40
2023-03-06T12:40:51.711Z,45
2023-03-06T12:42:08.878Z,62
2023-03-06T12:43:23.267Z,66
2023-03-06T12:44:40.340Z,57
2023-03-06T12:45:52.269Z,63
2023-03-06T12:47:01.858Z,52
2023-03-06T12:48:08.636Z,46
2023-03-06T12:49:31.765Z,55
2023-03-06T12:50:33.199Z,46
2023-03-06T12:51:40.384Z,56
2023-03-06T12:52:47.282Z,49
2023-03-06T12:53:54.093Z,53
2023-03-06T12:55:00.926Z,50
2023-03-06T12:56:08.104Z,49
2023-03-06T12:57:15.741Z,56
2023-03-06T12:58:22.754Z,65
2023-03-06T12:59:32.599Z,67
2023-03-06T13:00:42.334Z,51
2023-03-06T13:01:59.150Z,50
2023-03-06T13:03:09.543Z,53
2023-03-06T13:04:21.413Z,54
2023-03-06T13:05:30.961Z,56
2023-03-06T13:06:50.699Z,48
2023-03-06T13:08:02.588Z,39
2023-03-06T13:09:19.519Z,36
2023-03-06T13:10:31.431Z,48
2023-03-06T13:11:38.264Z,41
2023-03-06T13:12:50.944Z,35
2023-03-06T13:14:03.448Z,42
2023-03-06T13:15:20.351Z,48
2023-03-06T13:16:37.367Z,52
2023-03-06T13:17:44.288Z,56
2023-03-06T13:18:51.141Z,49
2023-03-06T13:20:08.159Z,46
2023-03-06T13:21:17.725Z,46
2023-03-06T13:22:34.702Z,42
2023-03-06T13:23:44.199Z,32
2023-03-06T13:24:55.005Z,41
2023-03-06T13:26:09.832Z,43
2023-03-06T13:27:26.798Z,43
2023-03-06T13:28:43.748Z,40
2023-03-06T13:29:53.406Z,50
2023-03-06T13:31:15.331Z,30
2023-03-06T13:32:17.791Z,34
2023-03-06T13:33:26.010Z,38
2023-03-06T13:34:37.919Z,41
2023-03-06T13:35:45.659Z,43
2023-03-06T13:36:57.583Z,33
2023-03-06T13:38:14.936Z,29
2023-03-06T13:39:31.860Z,35
2023-03-06T13:40:38.893Z,35
2023-03-06T13:41:45.711Z,48
2023-03-06T13:42:57.659Z,45
2023-03-06T13:44:07.791Z,39
2023-03-06T13:45:24.809Z,41
2023-03-06T13:46:37.704Z,28
2023-03-06T13:48:06.726Z,26
2023-03-06T13:48:51.956Z,41
2023-03-06T13:50:08.306Z,33
2023-03-06T13:51:20.203Z,28
2023-03-06T13:52:27.050Z,29
2023-03-06T13:53:41.690Z,32
2023-03-06T13:54:58.689Z,36
2023-03-06T13:56:15.637Z,49
2023-03-06T13:57:30.255Z,55
2023-03-06T13:58:42.193Z,63
2023-03-06T14:00:08.482Z,78
2023-03-06T14:01:22.071Z,82
2023-03-06T14:02:34.715Z,90
2023-03-06T14:03:49.675Z,94
2023-03-06T14:05:06.646Z,104
2023-03-06T14:06:16.144Z,110
2023-03-06T14:07:33.911Z,117
2023-03-06T14:08:42.606Z,112
2023-03-06T14:09:49.448Z,114
2023-03-06T14:11:06.449Z,125
2023-03-06T14:12:18.295Z,132
2023-03-06T14:13:32.278Z,121
2023-03-06T14:14:40.496Z,130
2023-03-06T14:15:47.423Z,124
2023-03-06T14:16:54.144Z,122
2023-03-06T14:18:01.101Z,127
2023-03-06T14:19:15.914Z,132
2023-03-06T14:20:22.710Z,130
2023-03-06T14:21:29.581Z,140
2023-03-06T14:22:36.455Z,132
2023-03-06T14:23:44.198Z,127
2023-03-06T14:24:51.036Z,136
2023-03-06T14:26:00.960Z,133
2023-03-06T14:27:17.883Z,140
2023-03-06T14:28:24.819Z,137
2023-03-06T14:29:31.693Z,140
2023-03-06T14:30:38.682Z,138
2023-03-06T14:31:45.533Z,136
2023-03-06T14:32:52.297Z,140
2023-03-06T14:33:59.164Z,133
2023-03-06T14:35:06.022Z,127
2023-03-06T14:36:17.905Z,126
2023-03-06T14:37:24.845Z,138
2023-03-06T14:38:31.609Z,129
2023-03-06T14:39:41.058Z,139
2023-03-06T14:40:48.091Z,131
2023-03-06T14:41:55.009Z,136
2023-03-06T14:43:09.823Z,132
2023-03-06T14:44:21.901Z,123
2023-03-06T14:45:29.560Z,122
2023-03-06T14:46:36.478Z,119
2023-03-06T14:47:43.254Z,120
2023-03-06T14:48:53.327Z,130
2023-03-06T14:50:01.005Z,115
2023-03-06T14:51:18.101Z,110
2023-03-06T14:52:24.908Z,110
2023-03-06T14:53:31.750Z,114
2023-03-06T14:54:39.463Z,120
2023-03-06T14:55:46.268Z,126
2023-03-06T14:57:01.117Z,111
2023-03-06T14:58:10.925Z,115
2023-03-06T14:59:18.668Z,111
2023-03-06T15:00:25.482Z,99
2023-03-06T15:01:37.066Z,102
2023-03-06T15:02:44.064Z,106
2023-03-06T15:03:50.905Z,103
2023-03-06T15:04:58.729Z,107
2023-03-06T15:06:05.660Z,102
2023-03-06T15:07:13.433Z,98
2023-03-06T15:08:20.269Z,102
2023-03-06T15:09:27.100Z,103
2023-03-06T15:10:35.690Z,100
2023-03-06T15:11:42.553Z,116
2023-03-06T15:12:54.625Z,114
2023-03-06T15:14:12.490Z,116
2023-03-06T15:15:22.104Z,113
2023-03-06T15:16:30.733Z,118
2023-03-06T15:17:37.457Z,122
2023-03-06T15:18:47.428Z,119
2023-03-06T15:19:59.279Z,119
2023-03-06T15:21:06.126Z,129
2023-03-06T15:22:17.920Z,131
2023-03-06T15:23:35.026Z,125
2023-03-06T15:24:41.832Z,128
2023-03-06T15:25:48.782Z,118
2023-03-06T15:26:55.694Z,114
2023-03-06T15:28:05.294Z,113
2023-03-06T15:29:22.495Z,107
2023-03-06T15:30:30.278Z,109
2023-03-06T15:31:37.200Z,110
2023-03-06T15:32:43.848Z,105
2023-03-06T15:33:50.921Z,101
2023-03-06T15:35:02.763Z,104
2023-03-06T15:36:19.888Z,113
2023-03-06T15:37:27.542Z,115
2023-03-06T15:38:34.346Z,113
2023-03-06T15:39:41.181Z,117
2023-03-06T15:40:48.907Z,117
2023-03-06T15:41:59.548Z,116
2023-03-06T15:43:16.677Z,117
2023-03-06T15:44:23.464Z,115
2023-03-06T15:45:31.138Z,117
2023-03-06T15:46:38.771Z,116
2023-03-06T15:47:45.642Z,107
2023-03-06T15:48:53.394Z,114
2023-03-06T15:50:04.652Z,116
2023-03-06T15:51:19.254Z,108
2023-03-06T15:52:25.997Z,120
2023-03-06T15:53:32.888Z,118
2023-03-06T15:54:39.766Z,111
2023-03-06T15:55:46.738Z,117
2023-03-06T15:56:53.554Z,113
2023-03-06T15:58:01.259Z,118
2023-03-06T15:59:08.655Z,128
2023-03-06T16:00:27.197Z,116
2023-03-06T16:01:28.427Z,116
2023-03-06T16:02:35.384Z,115
2023-03-06T16:03:43.084Z,113
2023-03-06T16:04:49.989Z,107
2023-03-06T16:05:56.834Z,104
2023-03-06T16:07:03.926Z,116
2023-03-06T16:08:10.821Z,112
2023-03-06T16:09:17.760Z,114
2023-03-06T16:10:24.832Z,113
2023-03-06T16:11:42.129Z,114
2023-03-06T16:12:39.432Z,101
2023-03-06T16:13:46.325Z,115
2023-03-06T16:14:53.285Z,104
2023-03-06T16:16:01.049Z,114